Time,TemperatureF,DewpointF,PressureIn,WindDirection,WindDirectionDegrees,WindSpeedMPH,WindSpeedGustMPH,Humidity,HourlyPrecipIn,Conditions,Clouds,dailyrainin,SoftwareType,DateUTC
2013-08-15 00:00:00,60.2,56.6,30.11,ESE,112,3.0,5.0,88,0.00,,,0.00,VWS V14.00,2013-08-15 05:00:00,
2013-08-15 00:05:00,60.2,56.3,30.11,ESE,112,2.0,5.0,87,0.00,,,0.00,VWS V14.00,2013-08-15 05:05:00,
2013-08-15 00:10:00,60.3,56.7,30.11,ESE,112,3.0,5.0,88,0.00,,,0.00,VWS V14.00,2013-08-15 05:10:00,
2013-08-15 00:15:00,60.3,56.4,30.11,ESE,112,3.0,5.0,87,0.00,,,0.00,VWS V14.00,2013-08-15 05:15:00,
2013-08-15 00:20:00,60.4,56.5,30.11,ESE,112,2.0,4.0,87,0.00,,,0.00,VWS V14.00,2013-08-15 05:20:00,
2013-08-15 00:25:00,60.5,56.9,30.11,ESE,112,3.0,5.0,88,0.00,,,0.00,VWS V14.00,2013-08-15 05:25:00,
2013-08-15 00:30:00,60.6,56.7,30.10,ESE,112,3.0,6.0,87,0.00,,,0.00,VWS V14.00,2013-08-15 05:30:00,
2013-08-15 00:35:00,60.7,56.8,30.10,ESE,112,3.0,6.0,87,0.00,,,0.00,VWS V14.00,2013-08-15 05:35:00,
2013-08-15 00:40:00,60.7,56.5,30.10,ESE,112,2.0,7.0,86,0.00,,,0.00,VWS V14.00,2013-08-15 05:40:00,
2013-08-15 00:45:00,60.8,56.6,30.10,ESE,112,2.0,5.0,86,0.00,,,0.00,VWS V14.00,2013-08-15 05:45:00,
2013-08-15 00:50:00,60.9,56.4,30.11,ESE,112,2.0,5.0,85,0.00,,,0.00,VWS V14.00,2013-08-15 05:50:00,
2013-08-15 00:55:00,60.9,56.7,30.10,ESE,112,3.0,5.0,86,0.00,,,0.00,VWS V14.00,2013-08-15 05:55:00,
2013-08-15 01:00:00,61.0,56.8,30.10,ESE,112,3.0,5.0,86,0.00,,,0.00,VWS V14.00,2013-08-15 06:00:00,
2013-08-15 01:05:00,61.0,56.8,30.10,ESE,112,3.0,5.0,86,0.00,,,0.00,VWS V14.00,2013-08-15 06:05:00,
2013-08-15 01:10:00,61.0,56.8,30.10,ESE,112,2.0,4.0,86,0.00,,,0.00,VWS V14.00,2013-08-15 06:10:00,
2013-08-15 01:15:00,60.9,56.7,30.10,ESE,112,2.0,5.0,86,0.00,,,0.00,VWS V14.00,2013-08-15 06:15:00,
2013-08-15 01:20:00,60.8,56.9,30.10,ESE,112,2.0,5.0,87,0.00,,,0.00,VWS V14.00,2013-08-15 06:20:00,
2013-08-15 01:25:00,60.7,56.8,30.10,ESE,112,3.0,7.0,87,0.00,,,0.00,VWS V14.00,2013-08-15 06:25:00,
2013-08-15 01:30:00,60.5,56.6,30.10,ESE,112,3.0,7.0,87,0.00,,,0.00,VWS V14.00,2013-08-15 06:30:00,
2013-08-15 01:35:00,60.4,56.2,30.10,ESE,112,2.0,5.0,86,0.00,,,0.00,VWS V14.00,2013-08-15 06:35:00,
2013-08-15 01:40:00,60.2,56.0,30.10,ESE,112,2.0,6.0,86,0.00,,,0.00,VWS V14.00,2013-08-15 06:40:00,
2013-08-15 01:45:00,60.0,55.8,30.10,ESE,112,2.0,5.0,86,0.00,,,0.00,VWS V14.00,2013-08-15 06:45:00,
2013-08-15 01:50:00,59.9,56.0,30.10,ESE,112,2.0,5.0,87,0.00,,,0.00,VWS V14.00,2013-08-15 06:50:00,
2013-08-15 01:55:00,59.8,55.9,30.09,ESE,112,2.0,5.0,87,0.00,,,0.00,VWS V14.00,2013-08-15 06:55:00,
2013-08-15 02:00:00,59.8,55.9,30.09,ESE,112,2.0,5.0,87,0.00,,,0.00,VWS V14.00,2013-08-15 07:00:00,
2013-08-15 02:05:00,59.6,55.4,30.09,ESE,112,2.0,5.0,86,0.00,,,0.00,VWS V14.00,2013-08-15 07:05:00,
2013-08-15 02:10:00,59.4,55.2,30.09,SE,135,1.0,3.0,86,0.00,,,0.00,VWS V14.00,2013-08-15 07:10:00,
2013-08-15 02:15:00,59.3,55.1,30.10,SE,135,1.0,4.0,86,0.00,,,0.00,VWS V14.00,2013-08-15 07:15:00,
2013-08-15 02:20:00,59.2,55.0,30.10,SE,135,0.0,3.0,86,0.00,,,0.00,VWS V14.00,2013-08-15 07:20:00,
2013-08-15 02:25:00,59.1,54.9,30.10,SE,135,0.0,2.0,86,0.00,,,0.00,VWS V14.00,2013-08-15 07:25:00,
2013-08-15 02:30:00,59.0,55.1,30.10,SE,135,0.0,0.0,87,0.00,,,0.00,VWS V14.00,2013-08-15 07:30:00,
2013-08-15 02:35:00,59.0,55.1,30.10,SE,135,0.0,0.0,87,0.00,,,0.00,VWS V14.00,2013-08-15 07:35:00,
2013-08-15 02:40:00,59.0,55.5,30.10,SE,135,0.0,0.0,88,0.00,,,0.00,VWS V14.00,2013-08-15 07:40:00,
2013-08-15 02:45:00,59.0,55.5,30.10,SE,135,0.0,0.0,88,0.00,,,0.00,VWS V14.00,2013-08-15 07:45:00,
2013-08-15 02:50:00,59.0,55.5,30.11,SE,135,0.0,0.0,88,0.00,,,0.00,VWS V14.00,2013-08-15 07:50:00,
2013-08-15 02:55:00,59.0,55.5,30.10,SE,135,0.0,0.0,88,0.00,,,0.00,VWS V14.00,2013-08-15 07:55:00,
2013-08-15 03:00:00,59.0,55.8,30.10,SE,135,0.0,0.0,89,0.00,,,0.00,VWS V14.00,2013-08-15 08:00:00,
2013-08-15 03:05:00,59.0,56.1,30.10,ESE,112,0.0,3.0,90,0.00,,,0.00,VWS V14.00,2013-08-15 08:05:00,
2013-08-15 03:10:00,59.0,56.1,30.10,ESE,112,1.0,3.0,90,0.00,,,0.00,VWS V14.00,2013-08-15 08:10:00,
2013-08-15 03:15:00,59.0,56.1,30.10,ESE,112,0.0,1.0,90,0.00,,,0.00,VWS V14.00,2013-08-15 08:15:00,
2013-08-15 03:20:00,58.9,56.0,30.10,ESE,112,0.0,1.0,90,0.00,,,0.00,VWS V14.00,2013-08-15 08:20:00,
2013-08-15 03:25:00,58.8,55.6,30.10,ESE,112,0.0,0.0,89,0.00,,,0.00,VWS V14.00,2013-08-15 08:25:00,
2013-08-15 03:30:00,58.8,55.6,30.10,ESE,112,0.0,1.0,89,0.00,,,0.00,VWS V14.00,2013-08-15 08:30:00,
2013-08-15 03:35:00,58.8,55.6,30.10,ESE,112,0.0,3.0,89,0.00,,,0.00,VWS V14.00,2013-08-15 08:35:00,
2013-08-15 03:40:00,58.9,56.0,30.10,ESE,112,0.0,1.0,90,0.00,,,0.00,VWS V14.00,2013-08-15 08:40:00,
2013-08-15 03:45:00,59.0,56.1,30.11,ESE,112,0.0,0.0,90,0.00,,,0.00,VWS V14.00,2013-08-15 08:45:00,
2013-08-15 03:50:00,59.1,56.5,30.11,ESE,112,0.0,0.0,91,0.00,,,0.00,VWS V14.00,2013-08-15 08:50:00,
2013-08-15 03:55:00,59.2,56.6,30.11,ESE,112,0.0,0.0,91,0.00,,,0.00,VWS V14.00,2013-08-15 08:55:00,
2013-08-15 04:00:00,59.1,56.5,30.11,ESE,112,0.0,0.0,91,0.00,,,0.00,VWS V14.00,2013-08-15 09:00:00,
2013-08-15 04:05:00,59.1,56.5,30.11,ESE,112,0.0,0.0,91,0.00,,,0.00,VWS V14.00,2013-08-15 09:05:00,
2013-08-15 04:10:00,59.1,56.5,30.11,ESE,112,0.0,0.0,91,0.00,,,0.00,VWS V14.00,2013-08-15 09:10:00,
2013-08-15 04:15:00,59.1,56.5,30.11,ESE,112,0.0,0.0,91,0.00,,,0.00,VWS V14.00,2013-08-15 09:15:00,
2013-08-15 04:20:00,59.0,56.4,30.10,ESE,112,0.0,0.0,91,0.00,,,0.00,VWS V14.00,2013-08-15 09:20:00,
2013-08-15 04:25:00,59.0,56.4,30.10,ESE,112,0.0,0.0,91,0.00,,,0.00,VWS V14.00,2013-08-15 09:25:00,
2013-08-15 04:30:00,58.9,56.3,30.10,ESE,112,0.0,0.0,91,0.00,,,0.00,VWS V14.00,2013-08-15 09:30:00,
2013-08-15 04:35:00,58.9,56.3,30.10,ESE,112,0.0,0.0,91,0.00,,,0.00,VWS V14.00,2013-08-15 09:35:00,
2013-08-15 04:40:00,58.8,56.2,30.10,ESE,112,0.0,0.0,91,0.00,,,0.00,VWS V14.00,2013-08-15 09:40:00,
2013-08-15 04:45:00,58.8,56.2,30.10,ESE,112,0.0,0.0,91,0.00,,,0.00,VWS V14.00,2013-08-15 09:45:00,
2013-08-15 04:50:00,58.7,56.1,30.10,ESE,112,0.0,0.0,91,0.00,,,0.00,VWS V14.00,2013-08-15 09:50:00,
2013-08-15 04:55:00,58.6,56.0,30.10,ESE,112,0.0,0.0,91,0.00,,,0.00,VWS V14.00,2013-08-15 09:55:00,
2013-08-15 05:00:00,58.5,55.9,30.10,ESE,112,0.0,0.0,91,0.00,,,0.00,VWS V14.00,2013-08-15 10:00:00,
2013-08-15 05:05:00,58.4,55.8,30.10,ESE,112,0.0,0.0,91,0.00,,,0.00,VWS V14.00,2013-08-15 10:05:00,
2013-08-15 05:10:00,58.2,55.6,30.10,ESE,112,0.0,0.0,91,0.00,,,0.00,VWS V14.00,2013-08-15 10:10:00,
2013-08-15 05:15:00,58.1,55.5,30.10,ESE,112,0.0,0.0,91,0.00,,,0.00,VWS V14.00,2013-08-15 10:15:00,
2013-08-15 05:20:00,58.0,55.4,30.11,ESE,112,0.0,0.0,91,0.00,,,0.00,VWS V14.00,2013-08-15 10:20:00,
2013-08-15 05:25:00,57.9,55.3,30.11,ESE,112,0.0,0.0,91,0.00,,,0.00,VWS V14.00,2013-08-15 10:25:00,
2013-08-15 05:30:00,57.8,55.5,30.10,ESE,112,0.0,0.0,92,0.00,,,0.00,VWS V14.00,2013-08-15 10:30:00,
2013-08-15 05:35:00,57.8,55.5,30.10,ESE,112,0.0,0.0,92,0.00,,,0.00,VWS V14.00,2013-08-15 10:35:00,
2013-08-15 05:40:00,57.8,55.5,30.10,ESE,112,0.0,1.0,92,0.00,,,0.00,VWS V14.00,2013-08-15 10:40:00,
2013-08-15 05:45:00,57.7,55.4,30.10,ESE,112,0.0,2.0,92,0.00,,,0.00,VWS V14.00,2013-08-15 10:45:00,
2013-08-15 05:50:00,57.7,55.4,30.10,ESE,112,0.0,1.0,92,0.00,,,0.00,VWS V14.00,2013-08-15 10:50:00,
2013-08-15 05:55:00,57.6,55.3,30.10,ESE,112,0.0,2.0,92,0.00,,,0.00,VWS V14.00,2013-08-15 10:55:00,
2013-08-15 06:00:00,57.6,55.3,30.10,ESE,112,1.0,3.0,92,0.00,,,0.00,VWS V14.00,2013-08-15 11:00:00,
2013-08-15 06:05:00,57.5,55.2,30.10,ESE,112,1.0,3.0,92,0.00,,,0.00,VWS V14.00,2013-08-15 11:05:00,
2013-08-15 06:10:00,57.5,55.2,30.10,ESE,112,0.0,2.0,92,0.00,,,0.00,VWS V14.00,2013-08-15 11:10:00,
2013-08-15 06:15:00,57.5,55.2,30.10,ESE,112,0.0,2.0,92,0.00,,,0.00,VWS V14.00,2013-08-15 11:15:00,
2013-08-15 06:20:00,57.4,55.1,30.10,ESE,112,0.0,1.0,92,0.00,,,0.00,VWS V14.00,2013-08-15 11:20:00,
2013-08-15 06:25:00,57.3,55.0,30.11,ESE,112,0.0,0.0,92,0.00,,,0.00,VWS V14.00,2013-08-15 11:25:00,
2013-08-15 06:30:00,57.2,55.2,30.11,ESE,112,0.0,0.0,93,0.00,,,0.00,VWS V14.00,2013-08-15 11:30:00,
2013-08-15 06:35:00,57.2,55.2,30.11,ESE,112,0.0,1.0,93,0.00,,,0.00,VWS V14.00,2013-08-15 11:35:00,
2013-08-15 06:40:00,57.1,55.1,30.11,ESE,112,1.0,2.0,93,0.00,,,0.00,VWS V14.00,2013-08-15 11:40:00,
2013-08-15 06:45:00,57.0,55.0,30.11,ESE,112,1.0,3.0,93,0.00,,,0.00,VWS V14.00,2013-08-15 11:45:00,
2013-08-15 06:50:00,57.0,55.0,30.11,ESE,112,1.0,2.0,93,0.00,,,0.00,VWS V14.00,2013-08-15 11:50:00,
2013-08-15 06:55:00,57.0,55.0,30.11,ESE,112,0.0,2.0,93,0.00,,,0.00,VWS V14.00,2013-08-15 11:55:00,
2013-08-15 07:00:00,57.0,55.0,30.11,ESE,112,0.0,1.0,93,0.00,,,0.00,VWS V14.00,2013-08-15 12:00:00,
2013-08-15 07:05:00,57.1,55.1,30.11,ESE,112,0.0,1.0,93,0.00,,,0.00,VWS V14.00,2013-08-15 12:05:00,
2013-08-15 07:10:00,57.2,55.2,30.11,ESE,112,0.0,0.0,93,0.00,,,0.00,VWS V14.00,2013-08-15 12:10:00,
2013-08-15 07:15:00,57.3,55.3,30.12,ESE,112,0.0,0.0,93,0.00,,,0.00,VWS V14.00,2013-08-15 12:15:00,
2013-08-15 07:20:00,57.4,55.7,30.12,ESE,112,0.0,0.0,94,0.00,,,0.00,VWS V14.00,2013-08-15 12:20:00,
2013-08-15 07:25:00,57.6,55.9,30.12,ESE,112,0.0,0.0,94,0.00,,,0.00,VWS V14.00,2013-08-15 12:25:00,
2013-08-15 07:30:00,57.8,56.1,30.12,ESE,112,0.0,0.0,94,0.00,,,0.00,VWS V14.00,2013-08-15 12:30:00,
2013-08-15 07:35:00,58.1,56.4,30.12,SSE,158,1.0,4.0,94,0.00,,,0.00,VWS V14.00,2013-08-15 12:35:00,
2013-08-15 07:40:00,58.4,57.0,30.12,SE,135,1.0,4.0,95,0.00,,,0.00,VWS V14.00,2013-08-15 12:40:00,
2013-08-15 07:45:00,58.7,57.3,30.12,South,180,1.0,4.0,95,0.00,,,0.00,VWS V14.00,2013-08-15 12:45:00,
2013-08-15 07:50:00,59.0,57.6,30.12,South,180,1.0,3.0,95,0.00,,,0.00,VWS V14.00,2013-08-15 12:50:00,
2013-08-15 07:55:00,59.4,58.0,30.12,SE,135,0.0,4.0,95,0.00,,,0.00,VWS V14.00,2013-08-15 12:55:00,
2013-08-15 08:00:00,59.7,57.7,30.12,SSE,158,4.0,6.0,93,0.00,,,0.00,VWS V14.00,2013-08-15 13:00:00,
2013-08-15 08:05:00,60.3,58.0,30.11,SSE,158,3.0,7.0,92,0.00,,,0.00,VWS V14.00,2013-08-15 13:05:00,
2013-08-15 08:10:00,60.8,57.2,30.12,SE,135,4.0,8.0,88,0.00,,,0.00,VWS V14.00,2013-08-15 13:10:00,
2013-08-15 08:15:00,61.3,56.8,30.12,SSE,158,5.0,8.0,85,0.00,,,0.00,VWS V14.00,2013-08-15 13:15:00,
2013-08-15 08:20:00,61.8,57.2,30.11,SSE,158,4.0,8.0,85,0.00,,,0.00,VWS V14.00,2013-08-15 13:20:00,
2013-08-15 08:25:00,62.4,57.5,30.11,SE,135,3.0,7.0,84,0.00,,,0.00,VWS V14.00,2013-08-15 13:25:00,
2013-08-15 08:30:00,62.8,57.9,30.11,SE,135,3.0,8.0,84,0.00,,,0.00,VWS V14.00,2013-08-15 13:30:00,
2013-08-15 08:35:00,63.0,56.7,30.11,SSE,158,6.0,9.0,80,0.00,,,0.00,VWS V14.00,2013-08-15 13:35:00,
2013-08-15 08:40:00,63.3,57.0,30.11,SSE,158,4.0,7.0,80,0.00,,,0.00,VWS V14.00,2013-08-15 13:40:00,
2013-08-15 08:45:00,64.0,58.4,30.11,SE,135,4.0,9.0,82,0.00,,,0.00,VWS V14.00,2013-08-15 13:45:00,
2013-08-15 08:50:00,64.5,57.8,30.11,SSE,158,6.0,11.0,79,0.00,,,0.00,VWS V14.00,2013-08-15 13:50:00,
2013-08-15 08:55:00,64.9,58.2,30.11,SSE,158,4.0,8.0,79,0.00,,,0.00,VWS V14.00,2013-08-15 13:55:00,
2013-08-15 09:00:00,65.1,57.7,30.11,South,180,5.0,10.0,77,0.00,,,0.00,VWS V14.00,2013-08-15 14:00:00,
2013-08-15 09:05:00,65.2,57.5,30.11,South,180,6.0,12.0,76,0.00,,,0.00,VWS V14.00,2013-08-15 14:05:00,
2013-08-15 09:10:00,65.1,57.0,30.12,South,180,5.0,12.0,75,0.00,,,0.00,VWS V14.00,2013-08-15 14:10:00,
2013-08-15 09:15:00,65.0,57.3,30.12,South,180,4.0,7.0,76,0.00,,,0.00,VWS V14.00,2013-08-15 14:15:00,
2013-08-15 09:20:00,65.1,57.4,30.12,SSE,158,3.0,7.0,76,0.00,,,0.00,VWS V14.00,2013-08-15 14:20:00,
2013-08-15 09:25:00,65.6,57.8,30.11,SSE,158,3.0,7.0,76,0.00,,,0.00,VWS V14.00,2013-08-15 14:25:00,
2013-08-15 09:30:00,66.0,57.9,30.11,South,180,5.0,9.0,75,0.00,,,0.00,VWS V14.00,2013-08-15 14:30:00,
2013-08-15 09:35:00,66.5,57.6,30.11,SSE,158,6.0,11.0,73,0.00,,,0.00,VWS V14.00,2013-08-15 14:35:00,
2013-08-15 09:40:00,66.7,57.0,30.11,SSE,158,6.0,10.0,71,0.00,,,0.00,VWS V14.00,2013-08-15 14:40:00,
2013-08-15 09:45:00,67.0,58.1,30.11,South,180,4.0,9.0,73,0.00,,,0.00,VWS V14.00,2013-08-15 14:45:00,
2013-08-15 09:50:00,67.5,57.4,30.11,South,180,7.0,12.0,70,0.00,,,0.00,VWS V14.00,2013-08-15 14:50:00,
2013-08-15 09:55:00,67.9,58.2,30.11,South,180,4.0,8.0,71,0.00,,,0.00,VWS V14.00,2013-08-15 14:55:00,
2013-08-15 10:00:00,68.4,58.2,30.12,SSE,158,2.0,6.0,70,0.00,,,0.00,VWS V14.00,2013-08-15 15:00:00,
2013-08-15 10:05:00,68.7,58.1,30.12,South,180,6.0,10.0,69,0.00,,,0.00,VWS V14.00,2013-08-15 15:05:00,
2013-08-15 10:10:00,69.2,58.6,30.12,South,180,4.0,9.0,69,0.00,,,0.00,VWS V14.00,2013-08-15 15:10:00,
2013-08-15 10:15:00,69.5,57.7,30.12,SSE,158,5.0,10.0,66,0.00,,,0.00,VWS V14.00,2013-08-15 15:15:00,
2013-08-15 10:20:00,69.6,57.3,30.12,South,180,5.0,12.0,65,0.00,,,0.00,VWS V14.00,2013-08-15 15:20:00,
2013-08-15 10:25:00,69.9,58.5,30.12,South,180,4.0,10.0,67,0.00,,,0.00,VWS V14.00,2013-08-15 15:25:00,
2013-08-15 10:30:00,70.1,57.8,30.12,SSE,158,5.0,10.0,65,0.00,,,0.00,VWS V14.00,2013-08-15 15:30:00,
2013-08-15 10:35:00,70.1,56.9,30.12,SSE,158,5.0,10.0,63,0.00,,,0.00,VWS V14.00,2013-08-15 15:35:00,
2013-08-15 10:40:00,69.9,57.2,30.12,SSE,158,5.0,11.0,64,0.00,,,0.00,VWS V14.00,2013-08-15 15:40:00,
2013-08-15 10:45:00,70.0,56.8,30.12,South,180,4.0,8.0,63,0.00,,,0.00,VWS V14.00,2013-08-15 15:45:00,
2013-08-15 17:08:00,73.6,59.3,30.02,SE,135,2.0,11.0,61,0.00,,,0.00,VWS V14.00,2013-08-15 22:08:00,
2013-08-15 17:13:00,73.7,59.4,30.01,ESE,114,7.0,10.0,61,0.00,,,0.00,VWS V14.00,2013-08-15 22:13:00,
2013-08-15 17:18:00,73.7,61.2,30.01,ESE,117,5.0,9.0,65,0.00,,,0.00,VWS V14.00,2013-08-15 22:18:00,
2013-08-15 17:23:00,73.4,60.5,30.01,East,99,12.0,12.0,64,0.00,,,0.00,VWS V14.00,2013-08-15 22:23:00,
2013-08-15 17:28:00,73.1,59.8,30.01,ESE,120,5.0,10.0,63,0.00,,,0.00,VWS V14.00,2013-08-15 22:28:00,
2013-08-15 17:33:00,72.9,60.0,30.01,SE,128,3.0,13.0,64,0.00,,,0.00,VWS V14.00,2013-08-15 22:33:00,
2013-08-15 17:38:00,72.7,58.9,30.01,ESE,104,2.0,13.0,62,0.00,,,0.00,VWS V14.00,2013-08-15 22:38:00,
2013-08-15 17:44:00,72.4,60.0,30.01,East,89,0.0,11.0,65,0.00,,,0.00,VWS V14.00,2013-08-15 22:44:00,
2013-08-15 17:48:00,72.1,60.1,30.01,East,95,4.0,6.0,66,0.00,,,0.00,VWS V14.00,2013-08-15 22:48:00,
2013-08-15 17:53:00,71.9,60.4,30.02,ENE,74,0.0,7.0,67,0.00,,,0.00,VWS V14.00,2013-08-15 22:53:00,
2013-08-15 17:58:00,71.8,60.7,30.02,ENE,74,0.0,3.0,68,0.00,,,0.00,VWS V14.00,2013-08-15 22:58:00,
2013-08-15 18:03:00,71.7,61.0,30.03,East,95,0.0,0.0,69,0.00,,,0.00,VWS V14.00,2013-08-15 23:03:00,
2013-08-15 18:08:00,71.7,60.6,30.03,ESE,116,0.0,3.0,68,0.00,,,0.00,VWS V14.00,2013-08-15 23:08:00,
2013-08-15 18:13:00,71.8,61.5,30.03,East,81,0.0,2.0,70,0.00,,,0.00,VWS V14.00,2013-08-15 23:13:00,
2013-08-15 18:18:00,71.9,61.2,30.03,ENE,72,0.0,3.0,69,0.00,,,0.00,VWS V14.00,2013-08-15 23:18:00,
2013-08-15 18:23:00,71.9,61.2,30.03,East,87,0.0,2.0,69,0.00,,,0.00,VWS V14.00,2013-08-15 23:23:00,
2013-08-15 18:29:00,71.8,62.7,30.03,ESE,104,0.0,4.0,73,0.00,,,0.00,VWS V14.00,2013-08-15 23:29:00,
2013-08-15 18:34:00,71.6,61.7,30.02,East,83,0.0,6.0,71,0.00,,,0.00,VWS V14.00,2013-08-15 23:34:00,
2013-08-15 18:39:00,71.5,61.6,30.02,ESE,104,5.0,5.0,71,0.00,,,0.00,VWS V14.00,2013-08-15 23:39:00,
2013-08-15 18:44:00,71.5,61.2,30.02,ESE,103,1.0,5.0,70,0.00,,,0.00,VWS V14.00,2013-08-15 23:44:00,
2013-08-15 18:49:00,71.4,61.1,30.02,NE,46,0.0,7.0,70,0.00,,,0.00,VWS V14.00,2013-08-15 23:49:00,
2013-08-15 18:54:00,71.2,60.5,30.02,East,101,1.0,6.0,69,0.00,,,0.00,VWS V14.00,2013-08-15 23:54:00,
2013-08-15 18:59:00,70.9,59.4,30.02,East,101,0.0,8.0,67,0.00,,,0.00,VWS V14.00,2013-08-15 23:59:00,
2013-08-15 19:04:00,70.6,59.5,30.03,ENE,70,1.0,1.0,68,0.00,,,0.00,VWS V14.00,2013-08-16 00:04:00,
2013-08-15 19:09:00,70.3,60.9,30.03,ESE,110,0.0,3.0,72,0.00,,,0.00,VWS V14.00,2013-08-16 00:09:00,
2013-08-15 19:14:00,69.9,61.2,30.03,East,84,0.0,4.0,74,0.00,,,0.00,VWS V14.00,2013-08-16 00:14:00,
2013-08-15 19:19:00,69.6,60.6,30.04,East,99,0.0,3.0,73,0.00,,,0.00,VWS V14.00,2013-08-16 00:19:00,
2013-08-15 19:24:00,69.3,60.3,30.04,East,82,0.0,0.0,73,0.00,,,0.00,VWS V14.00,2013-08-16 00:24:00,
2013-08-15 19:29:00,69.0,60.4,30.04,East,90,0.0,1.0,74,0.00,,,0.00,VWS V14.00,2013-08-16 00:29:00,
2013-08-15 19:34:00,68.8,60.2,30.04,East,94,0.0,2.0,74,0.00,,,0.00,VWS V14.00,2013-08-16 00:34:00,
2013-08-15 19:39:00,68.6,61.1,30.04,East,99,1.0,2.0,77,0.00,,,0.00,VWS V14.00,2013-08-16 00:39:00,
2013-08-15 19:44:00,68.4,60.5,30.04,East,101,0.0,1.0,76,0.00,,,0.00,VWS V14.00,2013-08-16 00:44:00,
2013-08-15 19:49:00,68.2,60.3,30.03,ESE,104,3.0,3.0,76,0.00,,,0.00,VWS V14.00,2013-08-16 00:49:00,
2013-08-15 19:54:00,68.0,60.9,30.03,East,87,1.0,4.0,78,0.00,,,0.00,VWS V14.00,2013-08-16 00:54:00,
2013-08-15 19:59:00,67.9,60.1,30.03,East,96,0.0,3.0,76,0.00,,,0.00,VWS V14.00,2013-08-16 00:59:00,
2013-08-15 20:04:00,67.7,60.6,30.04,East,83,0.0,2.0,78,0.00,,,0.00,VWS V14.00,2013-08-16 01:04:00,
2013-08-15 20:09:00,67.6,60.5,30.04,ESE,102,1.0,3.0,78,0.00,,,0.00,VWS V14.00,2013-08-16 01:09:00,
2013-08-15 20:14:00,67.5,60.8,30.04,East,100,0.0,1.0,79,0.00,,,0.00,VWS V14.00,2013-08-16 01:14:00,
2013-08-15 20:20:00,67.3,60.9,30.04,East,95,0.0,1.0,80,0.00,,,0.00,VWS V14.00,2013-08-16 01:20:00,
2013-08-15 20:25:00,67.2,60.1,30.04,East,88,0.0,2.0,78,0.00,,,0.00,VWS V14.00,2013-08-16 01:25:00,
2013-08-15 20:30:00,67.1,61.1,30.05,East,98,0.0,1.0,81,0.00,,,0.00,VWS V14.00,2013-08-16 01:30:00,
2013-08-15 20:35:00,67.0,60.6,30.05,East,82,0.0,1.0,80,0.00,,,0.00,VWS V14.00,2013-08-16 01:35:00,
2013-08-15 20:40:00,66.8,60.4,30.05,East,82,0.0,0.0,80,0.00,,,0.00,VWS V14.00,2013-08-16 01:40:00,
2013-08-15 20:45:00,66.7,61.0,30.05,East,99,0.0,1.0,82,0.00,,,0.00,VWS V14.00,2013-08-16 01:45:00,
2013-08-15 20:50:00,66.5,60.8,30.05,East,91,0.0,1.0,82,0.00,,,0.00,VWS V14.00,2013-08-16 01:50:00,
2013-08-15 20:55:00,66.3,60.7,30.05,East,87,0.0,2.0,82,0.00,,,0.00,VWS V14.00,2013-08-16 01:55:00,
2013-08-15 21:00:00,66.2,61.2,30.06,East,91,1.0,1.0,84,0.00,,,0.00,VWS V14.00,2013-08-16 02:00:00,
2013-08-15 21:05:00,65.9,60.9,30.06,East,95,0.0,1.0,84,0.00,,,0.00,VWS V14.00,2013-08-16 02:05:00,
2013-08-15 21:10:00,65.7,61.1,30.06,East,94,0.0,1.0,85,0.00,,,0.00,VWS V14.00,2013-08-16 02:10:00,
2013-08-15 21:15:00,65.6,61.0,30.06,East,86,0.0,2.0,85,0.00,,,0.00,VWS V14.00,2013-08-16 02:15:00,
2013-08-15 21:20:00,65.4,60.8,30.06,East,93,0.0,2.0,85,0.00,,,0.00,VWS V14.00,2013-08-16 02:20:00,
2013-08-15 21:25:00,65.3,60.7,30.06,East,83,0.0,4.0,85,0.00,,,0.00,VWS V14.00,2013-08-16 02:25:00,
2013-08-15 21:30:00,65.2,60.6,30.06,East,89,0.0,3.0,85,0.00,,,0.00,VWS V14.00,2013-08-16 02:30:00,
2013-08-15 21:35:00,65.0,60.0,30.06,East,100,0.0,4.0,84,0.00,,,0.00,VWS V14.00,2013-08-16 02:35:00,
2013-08-15 21:40:00,64.8,59.9,30.07,East,99,2.0,4.0,84,0.00,,,0.00,VWS V14.00,2013-08-16 02:40:00,
2013-08-15 21:45:00,64.7,59.8,30.07,East,85,3.0,3.0,84,0.00,,,0.00,VWS V14.00,2013-08-16 02:45:00,
2013-08-15 21:50:00,64.5,59.6,30.07,East,85,2.0,4.0,84,0.00,,,0.00,VWS V14.00,2013-08-16 02:50:00,
2013-08-15 21:55:00,64.4,59.8,30.07,East,96,0.0,4.0,85,0.00,,,0.00,VWS V14.00,2013-08-16 02:55:00,
2013-08-15 22:00:00,64.3,59.4,30.07,ESE,106,0.0,3.0,84,0.00,,,0.00,VWS V14.00,2013-08-16 03:00:00,
2013-08-15 22:05:00,64.3,59.7,30.07,East,95,2.0,2.0,85,0.00,,,0.00,VWS V14.00,2013-08-16 03:05:00,
2013-08-15 22:10:00,64.3,59.4,30.07,East,90,0.0,2.0,84,0.00,,,0.00,VWS V14.00,2013-08-16 03:10:00,
2013-08-15 22:15:00,64.3,59.7,30.07,East,90,1.0,3.0,85,0.00,,,0.00,VWS V14.00,2013-08-16 03:15:00,
2013-08-15 22:20:00,64.3,59.7,30.07,East,90,1.0,3.0,85,0.00,,,0.00,VWS V14.00,2013-08-16 03:20:00,
2013-08-15 22:25:00,64.1,59.5,30.07,East,90,1.0,5.0,85,0.00,,,0.00,VWS V14.00,2013-08-16 03:25:00,
2013-08-15 22:30:00,64.0,59.7,30.07,East,90,2.0,5.0,86,0.00,,,0.00,VWS V14.00,2013-08-16 03:30:00,
2013-08-15 22:35:00,63.9,59.0,30.06,East,90,2.0,5.0,84,0.00,,,0.00,VWS V14.00,2013-08-16 03:35:00,
2013-08-15 22:40:00,63.8,59.2,30.06,East,90,2.0,5.0,85,0.00,,,0.00,VWS V14.00,2013-08-16 03:40:00,
2013-08-15 22:45:00,63.8,59.5,30.06,East,90,2.0,7.0,86,0.00,,,0.00,VWS V14.00,2013-08-16 03:45:00,
2013-08-15 22:50:00,63.7,59.1,30.06,East,90,2.0,5.0,85,0.00,,,0.00,VWS V14.00,2013-08-16 03:50:00,
2013-08-15 22:55:00,63.6,59.0,30.06,ENE,68,3.0,5.0,85,0.00,,,0.00,VWS V14.00,2013-08-16 03:55:00,
2013-08-15 23:00:00,63.4,58.5,30.06,East,90,2.0,4.0,84,0.00,,,0.00,VWS V14.00,2013-08-16 04:00:00,
2013-08-15 23:05:00,63.3,58.4,30.06,ESE,112,2.0,5.0,84,0.00,,,0.00,VWS V14.00,2013-08-16 04:05:00,
2013-08-15 23:10:00,63.2,58.0,30.06,East,90,1.0,3.0,83,0.00,,,0.00,VWS V14.00,2013-08-16 04:10:00,
2013-08-15 23:15:00,63.1,57.5,30.07,East,90,0.0,3.0,82,0.00,,,0.00,VWS V14.00,2013-08-16 04:15:00,
2013-08-15 23:20:00,63.0,57.4,30.07,ESE,112,1.0,3.0,82,0.00,,,0.00,VWS V14.00,2013-08-16 04:20:00,
2013-08-15 23:25:00,62.9,57.3,30.07,ESE,112,1.0,3.0,82,0.00,,,0.00,VWS V14.00,2013-08-16 04:25:00,
2013-08-15 23:30:00,62.8,57.9,30.07,East,90,1.0,3.0,84,0.00,,,0.00,VWS V14.00,2013-08-16 04:30:00,
2013-08-15 23:35:00,62.6,57.7,30.07,East,90,1.0,3.0,84,0.00,,,0.00,VWS V14.00,2013-08-16 04:35:00,
2013-08-15 23:40:00,62.3,57.7,30.07,ESE,112,1.0,3.0,85,0.00,,,0.00,VWS V14.00,2013-08-16 04:40:00,
2013-08-15 23:45:00,62.2,58.0,30.07,ESE,112,2.0,5.0,86,0.00,,,0.00,VWS V14.00,2013-08-16 04:45:00,
2013-08-15 23:50:00,62.1,58.2,30.07,East,90,3.0,6.0,87,0.00,,,0.00,VWS V14.00,2013-08-16 04:50:00,
2013-08-15 23:55:00,61.8,57.6,30.07,ESE,112,3.0,5.0,86,0.00,,,0.00,VWS V14.00,2013-08-16 04:55:00,